createdAt,value
2018-12-20T00:00:27.928Z,7.83
2018-12-20T00:01:27.790Z,7.88
2018-12-20T00:02:28.026Z,7.8
2018-12-20T00:03:27.691Z,7.83
2018-12-20T00:04:28.120Z,7.87
2018-12-20T00:05:27.818Z,7.85
2018-12-20T00:06:28.183Z,7.82
2018-12-20T00:07:28.152Z,7.88
2018-12-20T00:08:28.201Z,7.83
2018-12-20T00:09:27.833Z,7.85
2018-12-20T00:10:27.688Z,7.93
2018-12-20T00:11:27.902Z,7.79
2018-12-20T00:12:28.406Z,7.83
2018-12-20T00:13:27.942Z,7.93
2018-12-20T00:14:34.408Z,7.88
2018-12-20T00:15:28.303Z,7.82
2018-12-20T00:16:28.158Z,7.85
2018-12-20T00:17:28.113Z,7.85
2018-12-20T00:18:27.779Z,7.85
2018-12-20T00:19:27.760Z,7.95
2018-12-20T00:20:27.939Z,7.82
2018-12-20T00:21:28.283Z,7.93
2018-12-20T00:22:27.971Z,7.91
2018-12-20T00:23:28.419Z,7.94
2018-12-20T00:24:28.352Z,7.82
2018-12-20T00:25:28.470Z,7.85
2018-12-20T00:26:28.021Z,7.85
2018-12-20T00:27:28.246Z,7.91
2018-12-20T00:28:27.986Z,7.97
2018-12-20T00:29:28.139Z,7.82
2018-12-20T00:30:27.922Z,7.91
2018-12-20T00:31:28.000Z,7.8
2018-12-20T00:32:28.344Z,7.85
2018-12-20T00:33:28.357Z,7.88
2018-12-20T00:34:28.669Z,7.91
2018-12-20T00:35:28.272Z,7.88
2018-12-20T00:36:28.583Z,7.9
2018-12-20T00:37:28.257Z,7.94
2018-12-20T00:38:28.652Z,7.87
2018-12-20T00:39:28.403Z,7.8
2018-12-20T00:40:28.457Z,7.82
2018-12-20T00:41:28.553Z,7.94
2018-12-20T00:42:28.700Z,7.9
2018-12-20T00:43:28.456Z,7.88
2018-12-20T00:44:28.506Z,7.87
2018-12-20T00:45:28.567Z,7.85
2018-12-20T00:46:28.239Z,7.88
2018-12-20T00:47:28.963Z,7.88
2018-12-20T00:48:28.478Z,7.91
2018-12-20T00:49:28.902Z,7.88
2018-12-20T00:50:28.891Z,7.88
2018-12-20T00:51:28.793Z,7.88
2018-12-20T00:52:29.121Z,7.91
2018-12-20T00:53:28.978Z,7.9
2018-12-20T00:54:28.974Z,7.83
2018-12-20T00:55:28.565Z,7.94
2018-12-20T00:56:28.878Z,7.87
2018-12-20T00:57:28.676Z,7.83
2018-12-20T00:58:28.501Z,7.91
2018-12-20T00:59:29.137Z,7.91
2018-12-20T01:00:28.493Z,7.83
2018-12-20T01:01:28.712Z,7.88
2018-12-20T01:02:28.568Z,7.88
2018-12-20T01:03:28.981Z,7.93
2018-12-20T01:04:28.828Z,7.95
2018-12-20T01:05:28.657Z,7.9
2018-12-20T01:06:28.944Z,7.88
2018-12-20T01:07:29.160Z,7.88
2018-12-20T01:08:29.150Z,7.87
2018-12-20T01:09:29.297Z,7.9
2018-12-20T01:10:29.354Z,7.87
2018-12-20T01:11:29.047Z,7.85
2018-12-20T01:12:29.083Z,7.88
2018-12-20T01:13:29.026Z,7.87
2018-12-20T01:14:29.159Z,7.93
2018-12-20T01:15:28.919Z,7.95
2018-12-20T01:16:29.344Z,7.95
2018-12-20T01:17:28.983Z,7.98
2018-12-20T01:18:28.861Z,7.87
2018-12-20T01:19:29.191Z,7.95
2018-12-20T01:20:29.418Z,7.95
2018-12-20T01:21:28.958Z,7.87
2018-12-20T01:22:29.110Z,7.95
2018-12-20T01:23:29.519Z,7.88
2018-12-20T01:24:29.254Z,7.85
2018-12-20T01:25:29.158Z,7.9
2018-12-20T01:26:29.250Z,7.95
2018-12-20T01:27:28.968Z,7.85
2018-12-20T01:28:29.319Z,7.91
2018-12-20T01:29:29.293Z,7.85
2018-12-20T01:30:29.303Z,7.93
2018-12-20T01:31:29.268Z,7.97
2018-12-20T01:32:29.772Z,7.97
2018-12-20T01:33:29.342Z,7.94
2018-12-20T01:34:29.629Z,7.82
2018-12-20T01:35:29.248Z,7.94
2018-12-20T01:36:29.438Z,7.93
2018-12-20T01:37:29.533Z,7.93
2018-12-20T01:38:29.164Z,7.9
2018-12-20T01:39:29.546Z,7.95
2018-12-20T01:40:29.528Z,7.95
2018-12-20T01:41:29.829Z,7.95
2018-12-20T01:42:29.458Z,7.95
2018-12-20T01:43:30.027Z,7.9
2018-12-20T01:44:29.573Z,7.9
2018-12-20T01:45:29.508Z,7.95
2018-12-20T01:46:29.405Z,7.91
2018-12-20T01:47:29.919Z,7.88
2018-12-20T01:48:29.761Z,7.83
2018-12-20T01:49:29.568Z,7.88
2018-12-20T01:50:30.000Z,7.91
2018-12-20T01:51:29.447Z,7.91
2018-12-20T01:52:29.567Z,7.93
2018-12-20T01:53:29.942Z,7.9
2018-12-20T01:54:29.655Z,7.91
2018-12-20T01:55:29.918Z,7.83
2018-12-20T01:56:29.838Z,7.9
2018-12-20T01:57:29.744Z,7.88
2018-12-20T01:58:29.944Z,7.85
2018-12-20T01:59:30.111Z,7.91
2018-12-20T02:00:30.313Z,7.85
2018-12-20T02:01:29.994Z,8
2018-12-20T02:02:30.114Z,7.91
2018-12-20T02:03:29.961Z,7.88
2018-12-20T02:04:30.431Z,7.83
2018-12-20T02:05:30.091Z,7.9
2018-12-20T02:06:29.981Z,7.9
2018-12-20T02:07:30.127Z,7.85
2018-12-20T02:08:30.112Z,7.91
2018-12-20T02:09:30.127Z,7.91
2018-12-20T02:10:30.126Z,7.87
2018-12-20T02:11:29.979Z,7.95
2018-12-20T02:12:30.417Z,7.87
2018-12-20T02:13:30.110Z,7.83
2018-12-20T02:14:30.473Z,7.9
2018-12-20T02:15:30.041Z,7.83
2018-12-20T02:16:30.703Z,7.95
2018-12-20T02:17:30.809Z,7.93
2018-12-20T02:18:30.417Z,8.01
2018-12-20T02:19:30.452Z,7.97
2018-12-20T02:20:30.265Z,7.97
2018-12-20T02:21:30.145Z,7.98
2018-12-20T02:22:30.273Z,8.01
2018-12-20T02:23:30.677Z,7.97
2018-12-20T02:24:30.873Z,7.9
2018-12-20T02:25:30.548Z,7.94
2018-12-20T02:26:30.058Z,7.91
2018-12-20T02:27:30.654Z,7.93
2018-12-20T02:28:30.263Z,7.88
2018-12-20T02:29:30.416Z,7.97
2018-12-20T02:30:30.827Z,7.97
2018-12-20T02:31:30.608Z,7.98
2018-12-20T02:32:30.700Z,7.93
2018-12-20T02:33:30.531Z,7.95
2018-12-20T02:34:30.602Z,7.94
2018-12-20T02:35:30.240Z,7.98
2018-12-20T02:36:30.183Z,7.93
2018-12-20T02:37:30.773Z,7.87
2018-12-20T02:38:30.919Z,7.83
2018-12-20T02:39:30.969Z,7.98
2018-12-20T02:40:30.579Z,7.88
2018-12-20T02:41:30.424Z,7.97
2018-12-20T02:42:30.416Z,7.93
2018-12-20T02:43:30.341Z,7.85
2018-12-20T02:44:31.174Z,7.87
2018-12-20T02:45:30.607Z,7.83
2018-12-20T02:46:30.569Z,7.85
2018-12-20T02:47:30.927Z,7.95
2018-12-20T02:48:30.388Z,7.97
2018-12-20T02:49:30.778Z,7.97
2018-12-20T02:50:31.175Z,7.85
2018-12-20T02:51:30.404Z,7.83
2018-12-20T02:52:30.656Z,7.9
2018-12-20T02:53:31.221Z,7.95
2018-12-20T02:54:31.271Z,7.97
2018-12-20T02:55:31.012Z,7.95
2018-12-20T02:56:30.511Z,7.93
2018-12-20T02:57:30.882Z,7.87
2018-12-20T02:58:31.513Z,7.93
2018-12-20T02:59:30.908Z,7.94
2018-12-20T03:00:30.859Z,7.93
2018-12-20T03:01:30.817Z,7.85
2018-12-20T03:02:31.038Z,7.97
2018-12-20T03:03:30.855Z,7.95
2018-12-20T03:04:31.439Z,7.87
2018-12-20T03:05:31.358Z,7.85
2018-12-20T03:06:30.696Z,7.95
2018-12-20T03:07:31.230Z,7.88
2018-12-20T03:08:30.781Z,7.85
2018-12-20T03:09:31.231Z,7.91
2018-12-20T03:10:31.102Z,7.91
2018-12-20T03:11:31.228Z,7.88
2018-12-20T03:12:31.353Z,7.9
2018-12-20T03:13:32.050Z,7.85
2018-12-20T03:14:31.488Z,7.91
2018-12-20T03:15:30.903Z,7.83
2018-12-20T03:16:31.728Z,7.83
2018-12-20T03:17:31.320Z,7.94
2018-12-20T03:18:31.307Z,7.85
2018-12-20T03:19:31.076Z,7.93
2018-12-20T03:20:31.457Z,7.85
2018-12-20T03:21:31.320Z,7.83
2018-12-20T03:22:30.943Z,7.91
2018-12-20T03:23:31.796Z,7.98
2018-12-20T03:24:32.223Z,7.91
2018-12-20T03:25:31.527Z,7.88
2018-12-20T03:26:31.661Z,7.87
2018-12-20T03:27:31.297Z,7.9
2018-12-20T03:28:31.465Z,7.88
2018-12-20T03:29:31.534Z,7.83
2018-12-20T03:30:31.954Z,7.85
2018-12-20T03:31:32.576Z,7.85
2018-12-20T03:32:31.379Z,7.9
2018-12-20T03:33:31.494Z,7.9
2018-12-20T03:34:31.387Z,7.8
2018-12-20T03:35:31.236Z,7.9
2018-12-20T03:36:31.452Z,7.95
2018-12-20T03:37:31.571Z,7.91
2018-12-20T03:38:31.524Z,7.94
2018-12-20T03:39:31.666Z,7.83
2018-12-20T03:40:31.588Z,7.91
2018-12-20T03:41:31.599Z,7.79
2018-12-20T03:42:31.721Z,7.82
2018-12-20T03:43:31.854Z,7.87
2018-12-20T03:44:31.699Z,7.9
2018-12-20T03:45:33.838Z,7.82
2018-12-20T03:46:31.884Z,7.87
2018-12-20T03:47:31.900Z,7.85
2018-12-20T03:48:31.637Z,7.87
2018-12-20T03:49:32.058Z,7.85
2018-12-20T03:50:31.855Z,7.8
2018-12-20T03:51:31.491Z,7.82
2018-12-20T03:52:31.488Z,7.83
2018-12-20T03:53:32.053Z,7.8
2018-12-20T03:54:32.246Z,7.8
2018-12-20T03:55:31.794Z,7.82
2018-12-20T03:56:32.278Z,7.85
2018-12-20T03:57:32.321Z,7.8
2018-12-20T03:58:32.376Z,7.8
2018-12-20T03:59:32.181Z,7.82
2018-12-20T04:00:32.416Z,7.66
2018-12-20T04:01:32.026Z,7.69
2018-12-20T04:02:31.775Z,7.7
2018-12-20T04:03:32.126Z,7.72
2018-12-20T04:04:32.206Z,7.72
2018-12-20T04:05:32.322Z,7.69
2018-12-20T04:06:32.293Z,7.7
2018-12-20T04:07:32.272Z,7.69
2018-12-20T04:08:32.074Z,7.69
2018-12-20T04:09:32.197Z,7.67
2018-12-20T04:10:32.133Z,7.69
2018-12-20T04:11:32.325Z,7.7
2018-12-20T04:12:32.413Z,7.69
2018-12-20T04:13:32.169Z,7.67
2018-12-20T04:14:32.519Z,7.67
2018-12-20T04:15:40.348Z,7.61
2018-12-20T04:16:32.701Z,7.69
2018-12-20T04:17:32.677Z,7.61
2018-12-20T04:18:32.242Z,7.6
2018-12-20T04:19:32.166Z,7.66
2018-12-20T04:20:32.848Z,7.7
2018-12-20T04:21:32.806Z,7.63
2018-12-20T04:22:32.276Z,7.6
2018-12-20T04:23:32.089Z,7.66
2018-12-20T04:24:32.818Z,7.63
2018-12-20T04:25:32.568Z,7.61
2018-12-20T04:26:32.739Z,7.61
2018-12-20T04:27:32.878Z,7.61
2018-12-20T04:28:32.695Z,7.63
2018-12-20T04:29:32.647Z,7.69
2018-12-20T04:30:33.088Z,7.67
2018-12-20T04:31:32.456Z,7.63
2018-12-20T04:32:32.858Z,7.58
2018-12-20T04:33:32.505Z,7.61
2018-12-20T04:34:32.765Z,7.61
2018-12-20T04:35:32.463Z,7.57
2018-12-20T04:36:32.273Z,7.63
2018-12-20T04:37:32.777Z,7.63
2018-12-20T04:38:32.996Z,7.67
2018-12-20T04:39:32.811Z,7.66
2018-12-20T04:40:32.441Z,7.69
2018-12-20T04:41:32.472Z,7.69
2018-12-20T04:42:32.816Z,7.6
2018-12-20T04:43:32.348Z,7.69
2018-12-20T04:44:32.420Z,7.67
2018-12-20T04:45:32.363Z,7.58
2018-12-20T04:46:32.612Z,7.63
2018-12-20T04:47:32.919Z,7.63
2018-12-20T04:48:32.640Z,7.67
2018-12-20T04:49:32.727Z,7.72
2018-12-20T04:50:33.056Z,7.63
2018-12-20T04:51:32.909Z,7.69
2018-12-20T04:52:32.861Z,7.75
2018-12-20T04:53:33.386Z,7.76
2018-12-20T04:54:32.610Z,7.7
2018-12-20T04:55:33.102Z,7.66
2018-12-20T04:56:33.212Z,7.67
2018-12-20T04:57:33.397Z,7.7
2018-12-20T04:58:33.477Z,7.73
2018-12-20T04:59:33.078Z,7.69
2018-12-20T05:00:32.665Z,7.72
2018-12-20T05:01:33.314Z,7.67
2018-12-20T05:02:32.838Z,7.72
2018-12-20T05:03:33.325Z,7.76
2018-12-20T05:04:33.316Z,7.73
2018-12-20T05:05:33.421Z,7.69
2018-12-20T05:06:32.989Z,7.72
2018-12-20T05:07:33.085Z,7.73
2018-12-20T05:08:33.295Z,7.67
2018-12-20T05:09:33.114Z,7.69
2018-12-20T05:10:33.357Z,7.69
2018-12-20T05:11:33.363Z,7.67
2018-12-20T05:12:33.747Z,7.72
2018-12-20T05:13:33.599Z,7.69
2018-12-20T05:14:33.295Z,7.73
2018-12-20T05:15:33.387Z,7.67
2018-12-20T05:16:33.741Z,7.66
2018-12-20T05:17:33.722Z,7.73
2018-12-20T05:18:33.354Z,7.66
2018-12-20T05:19:33.852Z,7.73
2018-12-20T05:20:33.335Z,7.77
2018-12-20T05:21:33.351Z,7.66
2018-12-20T05:22:33.642Z,7.63
2018-12-20T05:23:33.772Z,7.77
2018-12-20T05:24:33.839Z,7.79
2018-12-20T05:25:33.937Z,7.79
2018-12-20T05:26:33.666Z,7.83
2018-12-20T05:27:33.826Z,7.8
2018-12-20T05:28:33.318Z,7.8
2018-12-20T05:29:34.245Z,7.79
2018-12-20T05:30:33.678Z,7.8
2018-12-20T05:31:33.977Z,7.82
2018-12-20T05:32:33.540Z,7.76
2018-12-20T05:33:33.881Z,7.8
2018-12-20T05:34:33.779Z,7.8
2018-12-20T05:35:33.900Z,7.82
2018-12-20T05:36:33.469Z,7.8
2018-12-20T05:37:33.623Z,7.82
2018-12-20T05:38:33.894Z,7.83
2018-12-20T05:39:33.785Z,7.87
2018-12-20T05:40:33.596Z,7.85
2018-12-20T05:41:33.936Z,7.83
2018-12-20T05:42:34.468Z,7.83
2018-12-20T05:43:33.798Z,7.8
2018-12-20T05:44:34.236Z,7.88
2018-12-20T05:45:33.831Z,7.83
2018-12-20T05:46:34.032Z,7.82
2018-12-20T05:47:33.939Z,7.82
2018-12-20T05:48:34.072Z,7.79
2018-12-20T05:49:34.009Z,7.8
2018-12-20T05:50:33.759Z,7.83
2018-12-20T05:51:34.139Z,7.82
2018-12-20T05:52:34.167Z,7.82
2018-12-20T05:53:35.354Z,7.94
2018-12-20T05:54:33.758Z,7.85
2018-12-20T05:55:33.584Z,7.91
2018-12-20T05:56:33.863Z,7.94
2018-12-20T05:57:34.457Z,7.85
2018-12-20T05:58:34.100Z,7.91
2018-12-20T05:59:34.267Z,7.9
2018-12-20T06:00:33.946Z,7.9
2018-12-20T06:01:34.151Z,7.88
2018-12-20T06:02:34.199Z,7.87
2018-12-20T06:03:34.549Z,7.85
2018-12-20T06:04:34.480Z,7.9
2018-12-20T06:05:34.766Z,7.95
2018-12-20T06:06:34.034Z,7.88
2018-12-20T06:07:34.135Z,7.82
2018-12-20T06:08:33.807Z,7.88
2018-12-20T06:09:34.651Z,7.91
2018-12-20T06:10:34.364Z,7.91
2018-12-20T06:11:33.874Z,7.85
2018-12-20T06:12:33.993Z,7.88
2018-12-20T06:13:34.391Z,7.95
2018-12-20T06:14:34.629Z,7.87
2018-12-20T06:15:33.958Z,7.83
2018-12-20T06:16:34.380Z,7.83
2018-12-20T06:17:34.610Z,7.85
2018-12-20T06:18:34.470Z,7.9
2018-12-20T06:19:34.559Z,7.85
2018-12-20T06:20:34.377Z,7.91
2018-12-20T06:21:34.555Z,7.91
2018-12-20T06:22:34.074Z,7.93
2018-12-20T06:23:34.336Z,7.98
2018-12-20T06:24:34.365Z,7.97
2018-12-20T06:25:34.631Z,7.93
2018-12-20T06:26:34.388Z,8.01
2018-12-20T06:27:34.399Z,7.95
2018-12-20T06:28:34.427Z,7.97
2018-12-20T06:29:34.185Z,7.95
2018-12-20T06:30:34.461Z,7.98
2018-12-20T06:31:34.479Z,8
2018-12-20T06:32:34.233Z,7.87
2018-12-20T06:33:34.524Z,7.9
2018-12-20T06:34:34.798Z,7.94
2018-12-20T06:35:34.557Z,8
2018-12-20T06:36:34.819Z,7.98
2018-12-20T06:37:34.585Z,7.95
2018-12-20T06:38:34.601Z,7.95
2018-12-20T06:39:34.352Z,7.97
2018-12-20T06:40:34.634Z,7.88
2018-12-20T06:41:34.723Z,7.95
2018-12-20T06:42:34.673Z,7.95
2018-12-20T06:43:34.688Z,7.93
2018-12-20T06:44:34.450Z,7.97
2018-12-20T06:45:34.986Z,8.01
2018-12-20T06:46:34.738Z,8.01
2018-12-20T06:47:34.505Z,7.95
2018-12-20T06:48:34.774Z,7.97
2018-12-20T06:49:34.527Z,7.94
2018-12-20T06:50:34.549Z,7.95
2018-12-20T06:51:34.834Z,7.93
2018-12-20T06:52:35.112Z,7.98
2018-12-20T06:53:34.607Z,7.97
2018-12-20T06:54:34.615Z,8.03
2018-12-20T06:55:34.910Z,7.95
2018-12-20T06:56:34.904Z,7.97
2018-12-20T06:57:34.690Z,8.05
2018-12-20T06:58:34.686Z,8.03
2018-12-20T06:59:34.978Z,8
2018-12-20T07:00:35.246Z,8
2018-12-20T07:01:34.787Z,8.01
2018-12-20T07:02:35.023Z,8.03
2018-12-20T07:03:34.783Z,8
2018-12-20T07:04:35.088Z,8.12
2018-12-20T07:05:35.071Z,8.01
2018-12-20T07:06:35.083Z,8
2018-12-20T07:07:34.854Z,8
2018-12-20T07:08:34.866Z,8.01
2018-12-20T07:09:35.134Z,8.01
2018-12-20T07:10:35.162Z,7.97
2018-12-20T07:11:35.181Z,8.09
2018-12-20T07:12:34.931Z,8.06
2018-12-20T07:13:35.205Z,8.12
2018-12-20T07:14:35.492Z,8.01
2018-12-20T07:15:34.994Z,7.97
2018-12-20T07:16:35.419Z,8.12
2018-12-20T07:17:35.024Z,8.13
2018-12-20T07:18:35.553Z,8.01
2018-12-20T07:19:35.329Z,8.12
2018-12-20T07:20:35.076Z,8.13
2018-12-20T07:21:35.087Z,8.01
2018-12-20T07:22:35.370Z,8.09
2018-12-20T07:23:35.143Z,8.1
2018-12-20T07:24:35.413Z,8
2018-12-20T07:25:35.423Z,8.1
2018-12-20T07:26:35.692Z,8.12
2018-12-20T07:27:36.258Z,8.09
2018-12-20T07:28:35.487Z,8.09
2018-12-20T07:29:35.499Z,8.05
2018-12-20T07:30:35.257Z,8.05
2018-12-20T07:31:35.271Z,8.08
2018-12-20T07:32:35.799Z,8.09
2018-12-20T07:33:35.557Z,8.08
2018-12-20T07:34:35.332Z,8.12
2018-12-20T07:35:35.352Z,8.09
2018-12-20T07:36:35.864Z,8.12
2018-12-20T07:37:35.888Z,8.09
2018-12-20T07:38:35.395Z,8.08
2018-12-20T07:39:35.690Z,8.1
2018-12-20T07:40:35.681Z,8.09
2018-12-20T07:41:35.972Z,8.06
2018-12-20T07:42:35.723Z,8.09
2018-12-20T07:43:35.732Z,8.09
2018-12-20T07:44:37.592Z,8.13
2018-12-20T07:45:35.766Z,8.13
2018-12-20T07:46:42.775Z,8.1
2018-12-20T07:47:36.062Z,8.1
2018-12-20T07:48:36.661Z,8.13
2018-12-20T07:49:35.833Z,8.13
2018-12-20T07:50:35.862Z,8.01
2018-12-20T07:51:35.611Z,8.16
2018-12-20T07:52:36.156Z,8.1
2018-12-20T07:53:35.920Z,8.1
2018-12-20T07:54:35.922Z,8.13
2018-12-20T07:55:35.687Z,8.1
2018-12-20T07:56:35.961Z,8.16
2018-12-20T07:57:35.978Z,8.09
2018-12-20T07:58:36.002Z,8.06
2018-12-20T07:59:36.283Z,8.1
2018-12-20T08:00:35.781Z,8.18
2018-12-20T08:01:36.044Z,8.13
2018-12-20T08:02:35.807Z,8.09
2018-12-20T08:03:36.093Z,8.15
2018-12-20T08:04:36.106Z,8.1
2018-12-20T08:05:36.464Z,8.16
2018-12-20T08:06:36.141Z,8.13
2018-12-20T08:07:35.893Z,8.15
2018-12-20T08:08:36.442Z,8.19
2018-12-20T08:09:36.206Z,8.16
2018-12-20T08:10:35.949Z,8.15
2018-12-20T08:11:36.227Z,8.18
2018-12-20T08:12:35.984Z,8.13
2018-12-20T08:13:36.004Z,8.18
2018-12-20T08:14:36.283Z,8.16
2018-12-20T08:15:36.293Z,8.18
2018-12-20T08:16:36.055Z,8.18
2018-12-20T08:17:36.088Z,8.12
2018-12-20T08:18:36.609Z,8.19
2018-12-20T08:19:40.899Z,8.18
2018-12-20T08:20:36.135Z,8.19
2018-12-20T08:21:36.136Z,8.18
2018-12-20T08:22:36.421Z,8.18
2018-12-20T08:23:36.689Z,8.2
2018-12-20T08:24:36.809Z,8.23
2018-12-20T08:25:36.205Z,8.23
2018-12-20T08:26:36.245Z,8.24
2018-12-20T08:27:36.244Z,8.19
2018-12-20T08:28:36.781Z,8.33
2018-12-20T08:29:36.824Z,8.2
2018-12-20T08:30:36.813Z,8.3
2018-12-20T08:31:36.311Z,8.3
2018-12-20T08:32:36.732Z,8.27
2018-12-20T08:33:36.612Z,8.24
2018-12-20T08:34:36.626Z,8.31
2018-12-20T08:35:36.393Z,8.26
2018-12-20T08:36:36.664Z,8.24
2018-12-20T08:37:36.419Z,8.15
2018-12-20T08:38:36.443Z,8.27
2018-12-20T08:39:37.001Z,8.18
2018-12-20T08:40:36.742Z,8.3
2018-12-20T08:41:36.519Z,8.27
2018-12-20T08:42:37.024Z,8.31
2018-12-20T08:43:36.529Z,8.27
2018-12-20T08:44:36.547Z,8.27
2018-12-20T08:45:36.820Z,8.26
2018-12-20T08:46:36.581Z,8.26
2018-12-20T08:47:37.124Z,8.28
2018-12-20T08:48:36.884Z,8.26
2018-12-20T08:49:37.161Z,8.3
2018-12-20T08:50:36.902Z,8.33
2018-12-20T08:51:37.339Z,8.3
2018-12-20T08:52:37.213Z,8.33
2018-12-20T08:53:36.969Z,8.33
2018-12-20T08:54:37.250Z,8.3
2018-12-20T08:55:36.750Z,8.37
2018-12-20T08:56:37.010Z,8.31
2018-12-20T08:57:36.777Z,8.34
2018-12-20T08:58:36.799Z,8.37
2018-12-20T08:59:36.807Z,8.38
2018-12-20T09:00:36.831Z,8.36
2018-12-20T09:01:37.356Z,8.37
2018-12-20T09:02:37.125Z,8.34
2018-12-20T09:03:36.887Z,8.37
2018-12-20T09:04:37.159Z,8.41
2018-12-20T09:05:37.189Z,8.48
2018-12-20T09:06:36.937Z,8.51
2018-12-20T09:07:37.224Z,8.45
2018-12-20T09:08:37.508Z,8.42
2018-12-20T09:09:37.248Z,8.51
2018-12-20T09:10:37.519Z,8.46
2018-12-20T09:11:37.287Z,8.45
2018-12-20T09:12:37.299Z,8.46
2018-12-20T09:13:37.315Z,8.45
2018-12-20T09:14:37.073Z,8.46
2018-12-20T09:15:37.621Z,8.49
2018-12-20T09:16:37.375Z,8.46
2018-12-20T09:17:37.393Z,8.46
2018-12-20T09:18:37.684Z,8.46
2018-12-20T09:19:37.420Z,8.46
2018-12-20T09:20:37.397Z,8.61
2018-12-20T09:21:37.206Z,8.6
2018-12-20T09:22:37.889Z,8.53
2018-12-20T09:23:37.498Z,8.61
2018-12-20T09:24:37.251Z,8.64
2018-12-20T09:25:37.523Z,8.58
2018-12-20T09:26:37.296Z,8.64
2018-12-20T09:27:37.567Z,8.58
2018-12-20T09:28:37.835Z,8.58
2018-12-20T09:29:37.338Z,8.63
2018-12-20T09:30:37.889Z,8.74
2018-12-20T09:31:37.645Z,8.79
2018-12-20T09:32:37.945Z,8.71
2018-12-20T09:33:37.670Z,8.66
2018-12-20T09:34:37.696Z,8.7
2018-12-20T09:35:37.974Z,8.69
2018-12-20T09:36:37.467Z,8.7
2018-12-20T09:37:37.750Z,8.71
2018-12-20T09:38:37.514Z,8.71
2018-12-20T09:39:37.514Z,8.69
2018-12-20T09:40:37.904Z,8.78
2018-12-20T09:41:37.813Z,8.73
2018-12-20T09:42:37.576Z,8.78
2018-12-20T09:43:38.113Z,8.69
2018-12-20T09:44:37.618Z,8.7
2018-12-20T09:45:38.007Z,8.78
2018-12-20T09:46:37.900Z,8.76
2018-12-20T09:47:38.183Z,8.79
2018-12-20T09:48:37.944Z,8.74
2018-12-20T09:49:37.953Z,8.87
2018-12-20T09:50:37.973Z,8.74
2018-12-20T09:51:38.249Z,8.74
2018-12-20T09:52:37.748Z,8.73
2018-12-20T09:53:38.035Z,8.76
2018-12-20T09:54:38.047Z,8.87
2018-12-20T09:55:38.158Z,8.85
2018-12-20T09:56:38.089Z,8.79
2018-12-20T09:57:38.110Z,8.76
2018-12-20T09:58:38.119Z,8.79
2018-12-20T09:59:37.876Z,8.73
2018-12-20T10:00:38.146Z,8.76
2018-12-20T10:01:37.914Z,8.78
2018-12-20T10:02:38.183Z,8.82
2018-12-20T10:03:37.946Z,8.76
2018-12-20T10:04:38.217Z,8.88
2018-12-20T10:05:37.988Z,8.85
2018-12-20T10:06:37.995Z,8.85
2018-12-20T10:07:38.285Z,8.87
2018-12-20T10:08:38.295Z,8.78
2018-12-20T10:09:38.058Z,8.87
2018-12-20T10:10:38.329Z,8.91
2018-12-20T10:11:38.373Z,8.91
2018-12-20T10:12:38.366Z,8.97
2018-12-20T10:13:38.128Z,8.91
2018-12-20T10:14:38.669Z,8.92
2018-12-20T10:15:39.677Z,8.91
2018-12-20T10:16:38.175Z,8.92
2018-12-20T10:17:38.209Z,8.89
2018-12-20T10:18:38.289Z,9
2018-12-20T10:19:38.230Z,8.92
2018-12-20T10:20:38.246Z,9.03
2018-12-20T10:21:38.542Z,8.92
2018-12-20T10:22:38.553Z,9.03
2018-12-20T10:23:38.566Z,9.04
2018-12-20T10:24:38.848Z,9.08
2018-12-20T10:25:38.347Z,9.04
2018-12-20T10:26:38.365Z,9.1
2018-12-20T10:27:38.385Z,9.1
2018-12-20T10:28:38.658Z,9.14
2018-12-20T10:29:38.666Z,9.18
2018-12-20T10:30:38.951Z,9.14
2018-12-20T10:31:39.079Z,9.16
2018-12-20T10:32:38.733Z,9.22
2018-12-20T10:33:38.745Z,9.22
2018-12-20T10:34:38.775Z,9.13
2018-12-20T10:35:39.044Z,9.26
2018-12-20T10:36:38.544Z,9.1
2018-12-20T10:37:38.815Z,9.18
2018-12-20T10:38:39.146Z,9.19
2018-12-20T10:39:38.874Z,9.16
2018-12-20T10:40:38.613Z,9.21
2018-12-20T10:41:39.154Z,9.1
2018-12-20T10:42:38.912Z,9.22
2018-12-20T10:43:38.679Z,9.13
2018-12-20T10:44:39.212Z,9.16
2018-12-20T10:45:38.700Z,9.14
2018-12-20T10:46:39.234Z,9.23
2018-12-20T10:47:39.002Z,9.21
2018-12-20T10:48:38.759Z,9.23
2018-12-20T10:49:39.037Z,9.26
2018-12-20T10:50:39.054Z,9.28
2018-12-20T10:51:38.853Z,9.22
2018-12-20T10:52:39.142Z,9.25
2018-12-20T10:53:39.369Z,9.32
2018-12-20T10:54:39.132Z,9.36
2018-12-20T10:55:39.150Z,9.34
2018-12-20T10:56:38.905Z,9.34
2018-12-20T10:57:38.918Z,9.39
2018-12-20T10:58:38.933Z,9.41
2018-12-20T10:59:39.205Z,9.36
2018-12-20T11:00:38.972Z,9.37
2018-12-20T11:01:38.982Z,9.39
2018-12-20T11:02:39.000Z,9.36
2018-12-20T11:03:39.038Z,9.41
2018-12-20T11:04:39.034Z,9.32
2018-12-20T11:05:39.312Z,9.34
2018-12-20T11:06:39.595Z,9.34
2018-12-20T11:07:39.450Z,9.4
2018-12-20T11:08:39.119Z,9.34
2018-12-20T11:09:39.395Z,9.28
2018-12-20T11:10:39.412Z,9.34
2018-12-20T11:11:39.161Z,9.4
2018-12-20T11:12:39.446Z,9.41
2018-12-20T11:13:39.205Z,9.41
2018-12-20T11:14:39.477Z,9.32
2018-12-20T11:15:39.887Z,9.37
2018-12-20T11:16:39.523Z,9.36
2018-12-20T11:17:42.292Z,9.44
2018-12-20T11:18:39.296Z,9.36
2018-12-20T11:19:39.567Z,9.39
2018-12-20T11:20:39.334Z,9.46
2018-12-20T11:21:39.345Z,9.51
2018-12-20T11:22:39.632Z,9.47
2018-12-20T11:23:39.647Z,9.46
2018-12-20T11:24:39.395Z,9.51
2018-12-20T11:25:39.675Z,9.51
2018-12-20T11:26:39.953Z,9.48
2018-12-20T11:27:39.975Z,9.51
2018-12-20T11:28:39.746Z,9.48
2018-12-20T11:29:39.753Z,9.54
2018-12-20T11:30:39.760Z,9.58
2018-12-20T11:31:39.532Z,9.54
2018-12-20T11:32:39.547Z,9.54
2018-12-20T11:33:40.077Z,9.55
2018-12-20T11:34:39.852Z,9.56
2018-12-20T11:35:39.852Z,9.55
2018-12-20T11:36:39.882Z,9.59
2018-12-20T11:37:39.636Z,9.59
2018-12-20T11:38:39.917Z,9.55
2018-12-20T11:39:39.672Z,9.56
2018-12-20T11:40:40.212Z,9.51
2018-12-20T11:41:39.716Z,9.51
2018-12-20T11:42:39.747Z,9.54
2018-12-20T11:43:39.996Z,9.58
2018-12-20T11:44:40.026Z,9.48
2018-12-20T11:45:40.029Z,9.55
2018-12-20T11:46:40.077Z,9.58
2018-12-20T11:47:48.226Z,9.59
2018-12-20T11:48:39.831Z,9.5
2018-12-20T11:49:40.364Z,9.56
2018-12-20T11:50:40.388Z,9.5
2018-12-20T11:51:40.160Z,9.54
2018-12-20T11:52:47.048Z,9.54
2018-12-20T11:53:40.304Z,9.55
2018-12-20T11:54:39.944Z,9.51
2018-12-20T11:55:39.961Z,9.5
2018-12-20T11:56:39.973Z,9.58
2018-12-20T11:57:40.257Z,9.5
2018-12-20T11:58:40.266Z,9.55
2018-12-20T11:59:40.545Z,9.54
2018-12-20T12:00:40.324Z,9.58
2018-12-20T12:01:40.328Z,9.5
2018-12-20T12:02:40.367Z,9.51
2018-12-20T12:03:40.825Z,9.48
2018-12-20T12:04:40.383Z,9.47
2018-12-20T12:05:40.141Z,9.46
2018-12-20T12:06:40.153Z,9.4
2018-12-20T12:07:40.443Z,9.47
2018-12-20T12:08:40.462Z,9.48
2018-12-20T12:09:40.468Z,9.5
2018-12-20T12:10:40.498Z,9.39
2018-12-20T12:11:40.259Z,9.4
2018-12-20T12:12:40.779Z,9.46
2018-12-20T12:13:40.550Z,9.46
2018-12-20T12:14:40.315Z,9.48
2018-12-20T12:15:40.595Z,9.41
2018-12-20T12:16:40.604Z,9.43
2018-12-20T12:17:40.356Z,9.46
2018-12-20T12:18:40.427Z,9.39
2018-12-20T12:19:40.906Z,9.46
2018-12-20T12:20:40.667Z,9.43
2018-12-20T12:21:40.429Z,9.43
2018-12-20T12:22:40.456Z,9.4
2018-12-20T12:23:40.575Z,9.44
2018-12-20T12:24:40.740Z,9.41
2018-12-20T12:25:40.512Z,9.36
2018-12-20T12:26:40.779Z,9.46
2018-12-20T12:27:40.540Z,9.5
2018-12-20T12:28:40.616Z,9.5
2018-12-20T12:29:40.595Z,9.47
2018-12-20T12:30:40.865Z,9.37
2018-12-20T12:31:40.608Z,9.47
2018-12-20T12:32:40.638Z,9.44
2018-12-20T12:33:40.645Z,9.46
2018-12-20T12:34:40.937Z,9.55
2018-12-20T12:35:40.685Z,9.55
2018-12-20T12:36:40.698Z,9.48
2018-12-20T12:37:40.997Z,9.48
2018-12-20T12:38:40.742Z,9.5
2018-12-20T12:39:41.022Z,9.59
2018-12-20T12:40:41.036Z,9.51
2018-12-20T12:41:41.049Z,9.56
2018-12-20T12:42:40.812Z,9.56
2018-12-20T12:43:41.360Z,9.56
2018-12-20T12:44:40.845Z,9.54
2018-12-20T12:45:40.980Z,9.59
2018-12-20T12:46:40.891Z,9.55
2018-12-20T12:47:40.907Z,9.58
2018-12-20T12:48:40.928Z,9.54
2018-12-20T12:49:41.201Z,9.56
2018-12-20T12:50:41.216Z,9.61
2018-12-20T12:51:41.240Z,9.56
2018-12-20T12:52:40.996Z,9.54
2018-12-20T12:53:41.018Z,9.54
2018-12-20T12:54:41.290Z,9.59
2018-12-20T12:55:41.053Z,9.48
2018-12-20T12:56:41.322Z,9.55
2018-12-20T12:57:41.088Z,9.56
2018-12-20T12:58:41.366Z,9.55
2018-12-20T12:59:41.128Z,9.58
2018-12-20T13:00:41.136Z,9.55
2018-12-20T13:01:41.417Z,9.5
2018-12-20T13:02:41.434Z,9.46
2018-12-20T13:03:41.585Z,9.46
2018-12-20T13:04:41.480Z,9.5
2018-12-20T13:05:41.239Z,9.5
2018-12-20T13:06:41.255Z,9.55
2018-12-20T13:07:41.521Z,9.5
2018-12-20T13:08:41.289Z,9.55
2018-12-20T13:09:41.562Z,9.48
2018-12-20T13:10:41.602Z,9.5
2018-12-20T13:11:41.379Z,9.54
2018-12-20T13:12:41.621Z,9.51
2018-12-20T13:13:41.632Z,9.55
2018-12-20T13:14:41.924Z,9.48
2018-12-20T13:15:41.667Z,9.55
2018-12-20T13:16:41.693Z,9.59
2018-12-20T13:17:41.442Z,9.61
2018-12-20T13:18:42.002Z,9.56
2018-12-20T13:19:41.739Z,9.58
2018-12-20T13:20:41.512Z,9.56
2018-12-20T13:21:41.529Z,9.54
2018-12-20T13:22:41.556Z,9.56